createdAt,value
2022-12-16T00:02:04.963Z,31.17
2022-12-16T00:04:32.824Z,35.20
2022-12-16T00:07:00.566Z,32.37
2022-12-16T00:09:29.728Z,31.17
2022-12-16T00:11:57.498Z,26.83
2022-12-16T00:14:27.338Z,30.73
2022-12-16T00:16:55.135Z,38.07
2022-12-16T00:19:22.939Z,37.57
2022-12-16T00:21:50.664Z,29.80
2022-12-16T00:24:19.815Z,34.67
2022-12-16T00:26:49.049Z,37.50
2022-12-16T00:29:17.492Z,32.10
2022-12-16T00:31:48.030Z,35.73
2022-12-16T00:34:16.388Z,30.97
2022-12-16T00:36:45.031Z,35.00
2022-12-16T00:39:12.839Z,31.30
2022-12-16T00:41:40.687Z,31.93
2022-12-16T00:44:10.568Z,43.20
2022-12-16T00:46:38.313Z,36.07
2022-12-16T00:49:06.291Z,46.87
2022-12-16T00:51:34.399Z,42.40
2022-12-16T00:54:02.363Z,42.33
2022-12-16T00:56:30.122Z,42.37
2022-12-16T00:58:57.904Z,34.47
2022-12-16T01:01:27.204Z,36.43
2022-12-16T01:03:57.287Z,37.93
2022-12-16T01:06:25.221Z,41.70
2022-12-16T01:08:53.038Z,53.83
2022-12-16T01:11:22.732Z,43.17
2022-12-16T01:13:52.490Z,44.87
2022-12-16T01:16:23.232Z,42.47
2022-12-16T01:18:53.435Z,35.87
2022-12-16T01:21:23.628Z,39.10
2022-12-16T01:23:51.612Z,33.40
2022-12-16T01:26:22.849Z,33.47
2022-12-16T01:28:50.650Z,38.93
2022-12-16T01:31:20.511Z,44.73
2022-12-16T01:33:48.615Z,44.70
2022-12-16T01:36:18.095Z,31.93
2022-12-16T01:38:46.327Z,41.70
2022-12-16T01:41:15.562Z,43.87
2022-12-16T01:43:44.481Z,45.93
2022-12-16T01:46:20.361Z,41.13
2022-12-16T01:48:52.822Z,39.67
2022-12-16T01:51:28.105Z,32.47
2022-12-16T01:53:59.181Z,43.90
2022-12-16T01:56:29.504Z,45.10
2022-12-16T01:58:58.309Z,46.97
2022-12-16T02:01:26.541Z,35.73
2022-12-16T02:03:56.922Z,43.27
2022-12-16T02:06:26.599Z,41.10
2022-12-16T02:08:58.078Z,36.47
2022-12-16T02:11:58.279Z,38.53
2022-12-16T02:14:40.774Z,34.47
2022-12-16T02:17:16.046Z,36.13
2022-12-16T02:20:13.749Z,32.53
2022-12-16T02:22:53.214Z,33.27
2022-12-16T02:25:53.166Z,33.37
2022-12-16T02:28:38.694Z,31.50
2022-12-16T02:31:22.779Z,31.13
2022-12-16T02:34:03.220Z,36.50
2022-12-16T02:36:45.568Z,31.93
2022-12-16T02:39:16.657Z,34.83
2022-12-16T02:41:51.696Z,28.17
2022-12-16T02:44:22.110Z,36.80
2022-12-16T02:46:55.948Z,34.37
2022-12-16T02:49:46.037Z,30.87
2022-12-16T02:52:15.694Z,33.00
2022-12-16T02:54:45.057Z,30.13
2022-12-16T02:57:24.748Z,31.80
2022-12-16T03:00:02.663Z,34.93
2022-12-16T03:02:41.876Z,36.30
2022-12-16T03:05:16.180Z,35.10
2022-12-16T03:07:46.306Z,44.43
2022-12-16T03:10:18.524Z,34.97
2022-12-16T03:12:47.447Z,30.97
2022-12-16T03:15:22.579Z,39.37
2022-12-16T03:17:53.922Z,35.87
2022-12-16T03:20:28.897Z,30.27
2022-12-16T03:23:02.928Z,36.20
2022-12-16T03:25:35.663Z,33.07
2022-12-16T03:28:11.616Z,33.10
2022-12-16T03:30:43.874Z,33.30
2022-12-16T03:33:20.581Z,31.17
2022-12-16T03:35:53.248Z,31.33
2022-12-16T03:38:22.718Z,39.93
2022-12-16T03:40:52.271Z,33.30
2022-12-16T03:43:22.876Z,37.87
2022-12-16T03:45:55.238Z,36.43
2022-12-16T03:48:27.482Z,29.03
2022-12-16T03:50:55.623Z,30.80
2022-12-16T03:53:26.452Z,35.33
2022-12-16T03:55:54.500Z,36.83
2022-12-16T03:58:22.708Z,33.90
2022-12-16T04:00:50.778Z,41.10
2022-12-16T04:03:18.874Z,40.93
2022-12-16T04:05:48.108Z,40.67
2022-12-16T04:08:15.898Z,37.07
2022-12-16T04:11:01.112Z,38.67
2022-12-16T04:13:46.543Z,26.13
2022-12-16T04:16:34.619Z,30.60
2022-12-16T04:19:20.681Z,36.07
2022-12-16T04:22:07.664Z,30.77
2022-12-16T04:24:37.000Z,38.87
2022-12-16T04:27:22.566Z,28.70
2022-12-16T04:30:07.896Z,30.83
2022-12-16T04:32:49.701Z,35.17
2022-12-16T04:35:34.946Z,20.13
2022-12-16T04:38:21.642Z,31.53
2022-12-16T04:41:07.032Z,24.53
2022-12-16T04:43:52.230Z,34.30
2022-12-16T04:46:37.765Z,30.40
2022-12-16T04:49:23.048Z,40.63
2022-12-16T04:52:08.243Z,27.03
2022-12-16T04:54:55.280Z,31.57
2022-12-16T04:57:40.707Z,31.87
2022-12-16T05:00:26.989Z,22.77
2022-12-16T05:03:11.270Z,39.90
2022-12-16T05:05:56.967Z,38.70
2022-12-16T05:08:41.956Z,26.77
2022-12-16T05:11:25.032Z,46.10
2022-12-16T05:14:10.382Z,34.00
2022-12-16T05:16:55.471Z,26.20
2022-12-16T05:19:40.737Z,35.57
2022-12-16T05:22:25.852Z,36.47
2022-12-16T05:25:11.021Z,25.93
2022-12-16T05:27:58.357Z,40.43
2022-12-16T05:30:44.199Z,33.20
2022-12-16T05:33:29.871Z,29.33
2022-12-16T05:36:15.416Z,38.20
2022-12-16T05:39:00.551Z,33.63
2022-12-16T05:41:45.736Z,32.73
2022-12-16T05:44:32.456Z,34.57
2022-12-16T05:47:17.563Z,31.80
2022-12-16T05:50:02.627Z,32.43
2022-12-16T05:52:47.825Z,37.57
2022-12-16T05:55:34.178Z,29.73
2022-12-16T05:58:19.712Z,34.33
2022-12-16T06:01:06.500Z,34.37
2022-12-16T06:03:51.842Z,32.63
2022-12-16T06:06:37.375Z,32.67
2022-12-16T06:09:22.475Z,28.40
2022-12-16T06:12:16.993Z,34.10
2022-12-16T06:15:02.195Z,27.70
2022-12-16T06:17:48.662Z,29.57
2022-12-16T06:20:34.134Z,29.83
2022-12-16T06:23:25.319Z,32.60
2022-12-16T06:26:10.670Z,31.13
2022-12-16T06:28:56.096Z,29.23
2022-12-16T06:31:41.476Z,38.07
2022-12-16T06:34:24.580Z,40.60
2022-12-16T06:37:09.907Z,33.97
2022-12-16T06:39:55.142Z,33.47
2022-12-16T06:42:40.376Z,30.00
2022-12-16T06:45:31.422Z,26.47
2022-12-16T06:48:19.704Z,30.90
2022-12-16T06:51:06.566Z,29.60
2022-12-16T06:53:51.985Z,28.20
2022-12-16T06:56:37.415Z,31.87
2022-12-16T06:59:23.255Z,32.43
2022-12-16T07:02:08.798Z,28.73
2022-12-16T07:04:54.456Z,29.77
2022-12-16T07:07:41.102Z,32.53
2022-12-16T07:10:27.158Z,28.03
2022-12-16T07:13:15.949Z,30.50
2022-12-16T07:16:01.046Z,35.03
2022-12-16T07:18:46.438Z,23.37
2022-12-16T07:21:31.651Z,34.73
2022-12-16T07:24:18.294Z,33.43
2022-12-16T07:27:03.894Z,25.53
2022-12-16T07:29:49.586Z,24.67
2022-12-16T07:32:47.806Z,26.30
2022-12-16T07:35:33.246Z,31.70
2022-12-16T07:38:18.521Z,29.23
2022-12-16T07:41:06.591Z,29.50
2022-12-16T07:43:51.878Z,31.73
2022-12-16T07:46:37.031Z,29.67
2022-12-16T07:49:22.363Z,34.00
2022-12-16T07:52:09.746Z,22.37
2022-12-16T07:54:58.825Z,30.97
2022-12-16T07:57:45.625Z,27.90
2022-12-16T08:00:31.456Z,32.70
2022-12-16T08:03:17.042Z,31.97
2022-12-16T08:06:02.295Z,26.93
2022-12-16T08:08:47.399Z,36.93
2022-12-16T08:11:32.736Z,38.33
2022-12-16T08:14:15.843Z,32.83
2022-12-16T08:17:01.499Z,32.80
2022-12-16T08:19:46.640Z,33.97
2022-12-16T08:22:46.411Z,38.37
2022-12-16T08:25:31.859Z,53.07
2022-12-16T08:28:22.468Z,31.87
2022-12-16T08:31:10.263Z,36.33
2022-12-16T08:33:55.465Z,28.33
2022-12-16T08:36:41.154Z,38.40
2022-12-16T08:39:41.025Z,29.63
2022-12-16T08:42:26.003Z,44.83
2022-12-16T08:45:11.203Z,44.97
2022-12-16T08:47:58.072Z,49.73
2022-12-16T08:50:43.783Z,52.57
2022-12-16T08:53:29.177Z,66.50
2022-12-16T08:56:14.192Z,56.37
2022-12-16T08:59:01.418Z,60.00
2022-12-16T09:01:49.094Z,52.57
2022-12-16T09:04:35.802Z,71.07
2022-12-16T09:07:21.309Z,42.73
2022-12-16T09:10:06.453Z,52.67
2022-12-16T09:12:51.622Z,57.30
2022-12-16T09:15:37.264Z,44.10
2022-12-16T09:18:22.665Z,47.63
2022-12-16T09:21:09.801Z,53.00
2022-12-16T09:23:55.248Z,52.60
2022-12-16T09:26:40.912Z,45.20
2022-12-16T09:29:26.494Z,59.00
2022-12-16T09:32:11.531Z,55.30
2022-12-16T09:34:56.965Z,54.13
2022-12-16T09:37:43.443Z,58.40
2022-12-16T09:40:32.179Z,58.53
2022-12-16T09:43:25.268Z,56.27
2022-12-16T09:46:18.853Z,69.70
2022-12-16T09:49:10.223Z,78.60
2022-12-16T09:51:57.973Z,67.70
2022-12-16T09:54:48.074Z,72.57
2022-12-16T09:57:34.221Z,68.17
2022-12-16T10:00:26.700Z,80.13
2022-12-16T10:03:14.481Z,84.07
2022-12-16T10:06:10.464Z,57.60
2022-12-16T10:09:06.989Z,58.13
2022-12-16T10:12:16.290Z,68.80
2022-12-16T10:15:10.168Z,78.60
2022-12-16T10:18:02.057Z,68.00
2022-12-16T10:20:54.659Z,60.13
2022-12-16T10:23:46.809Z,71.23
2022-12-16T10:26:39.279Z,70.60
2022-12-16T10:29:35.462Z,60.63
2022-12-16T10:32:29.375Z,75.87
2022-12-16T10:35:15.399Z,77.70
2022-12-16T10:38:01.754Z,75.77
2022-12-16T10:40:54.297Z,79.07
2022-12-16T10:43:49.770Z,65.63
2022-12-16T10:46:42.600Z,67.37
2022-12-16T10:49:32.848Z,76.70
2022-12-16T10:52:23.934Z,59.53
2022-12-16T10:55:22.263Z,80.50
2022-12-16T10:58:17.690Z,75.10
2022-12-16T11:01:11.097Z,62.57
2022-12-16T11:03:59.388Z,83.10
2022-12-16T11:06:46.761Z,75.67
2022-12-16T11:09:41.132Z,72.70
2022-12-16T11:12:40.410Z,72.30
2022-12-16T11:15:41.881Z,132.63
2022-12-16T11:18:33.333Z,86.20
2022-12-16T11:21:32.351Z,73.13
2022-12-16T11:24:29.497Z,99.87
2022-12-16T11:27:24.103Z,72.27
2022-12-16T11:30:11.920Z,77.87
2022-12-16T11:33:01.059Z,79.63
2022-12-16T11:35:49.119Z,125.90
2022-12-16T11:38:41.826Z,90.43
2022-12-16T11:41:33.786Z,115.50
2022-12-16T11:44:20.633Z,171.90
2022-12-16T11:47:06.473Z,87.70
2022-12-16T11:49:52.016Z,121.07
2022-12-16T11:52:39.808Z,100.80
2022-12-16T11:58:50.594Z,85.07
2022-12-16T12:01:55.524Z,95.93
2022-12-16T12:04:41.924Z,91.93
2022-12-16T12:07:45.273Z,75.23
2022-12-16T12:11:00.859Z,68.40
2022-12-16T12:14:08.508Z,81.87
2022-12-16T12:17:07.553Z,79.80
2022-12-16T12:20:05.325Z,68.67
2022-12-16T12:22:54.812Z,75.37
2022-12-16T12:25:49.301Z,92.83
2022-12-16T12:28:47.025Z,80.40
2022-12-16T12:31:44.156Z,65.53
2022-12-16T12:34:37.575Z,77.47
2022-12-16T12:37:30.091Z,76.13
2022-12-16T12:40:37.579Z,80.40
2022-12-16T12:43:39.772Z,72.73
2022-12-16T12:46:37.593Z,84.53
2022-12-16T12:49:29.777Z,68.73
2022-12-16T12:52:22.298Z,78.17
2022-12-16T12:55:12.042Z,71.90
2022-12-16T12:57:59.982Z,72.03
2022-12-16T13:00:53.637Z,75.37
2022-12-16T13:03:49.779Z,80.93
2022-12-16T13:06:36.587Z,92.83
2022-12-16T13:09:40.862Z,84.53
2022-12-16T13:12:44.939Z,76.60
2022-12-16T13:15:46.226Z,73.97
2022-12-16T13:18:50.635Z,83.43
2022-12-16T13:22:01.549Z,81.50
2022-12-16T13:24:55.358Z,81.57
2022-12-16T13:27:41.603Z,84.27
2022-12-16T13:30:41.184Z,83.47
2022-12-16T13:33:41.394Z,84.87
2022-12-16T13:36:29.462Z,90.83
2022-12-16T13:39:25.977Z,88.73
2022-12-16T13:42:18.504Z,98.83
2022-12-16T13:45:15.362Z,77.60
2022-12-16T13:48:23.736Z,76.87
2022-12-16T13:51:18.443Z,76.90
2022-12-16T13:54:10.277Z,92.07
2022-12-16T13:56:59.226Z,87.00
2022-12-16T13:59:47.994Z,88.20
2022-12-16T14:02:43.803Z,83.03
2022-12-16T14:05:37.232Z,91.47
2022-12-16T14:08:24.975Z,93.63
2022-12-16T14:11:19.258Z,96.13
2022-12-16T14:14:12.526Z,95.83
2022-12-16T14:17:09.361Z,86.20
2022-12-16T14:20:08.631Z,95.77
2022-12-16T14:23:10.644Z,103.77
2022-12-16T14:26:13.488Z,94.87
2022-12-16T14:29:01.138Z,103.13
2022-12-16T14:31:52.746Z,105.10
2022-12-16T14:34:40.503Z,119.83
2022-12-16T14:37:31.962Z,112.27
2022-12-16T14:40:16.882Z,101.27
2022-12-16T14:43:02.791Z,113.83
2022-12-16T14:45:52.432Z,132.67
2022-12-16T14:48:49.598Z,113.07
2022-12-16T14:51:46.749Z,103.30
2022-12-16T14:54:41.947Z,129.23
2022-12-16T14:57:33.038Z,131.30
2022-12-16T15:00:20.436Z,119.27
2022-12-16T15:03:10.361Z,114.30
2022-12-16T15:05:58.223Z,105.27
2022-12-16T15:08:45.207Z,109.10
2022-12-16T15:11:56.232Z,101.70
2022-12-16T15:14:45.135Z,98.03
2022-12-16T15:17:40.077Z,111.20
2022-12-16T15:20:37.816Z,94.23
2022-12-16T15:23:34.674Z,97.73
2022-12-16T15:26:20.538Z,109.20
2022-12-16T15:29:06.285Z,98.77
2022-12-16T15:31:55.158Z,108.23
2022-12-16T15:34:49.033Z,104.17
2022-12-16T15:37:39.507Z,114.23
2022-12-16T15:40:38.630Z,98.10
2022-12-16T15:43:24.422Z,98.83
2022-12-16T15:46:10.557Z,94.23
2022-12-16T15:48:59.233Z,111.97
2022-12-16T15:51:59.497Z,98.40
2022-12-16T15:54:46.807Z,107.37
2022-12-16T15:57:46.041Z,102.67
2022-12-16T16:00:41.849Z,85.93
2022-12-16T16:03:42.272Z,95.93
2022-12-16T16:06:41.495Z,96.73
2022-12-16T16:09:31.636Z,97.77
2022-12-16T16:12:18.399Z,96.50
2022-12-16T16:15:03.750Z,103.20
2022-12-16T16:17:48.908Z,105.80
2022-12-16T16:20:36.193Z,106.87
2022-12-16T16:23:22.052Z,131.90
2022-12-16T16:26:07.452Z,102.63
2022-12-16T16:28:54.243Z,103.83
2022-12-16T16:31:39.393Z,110.20
2022-12-16T16:34:24.939Z,110.47
2022-12-16T16:37:12.756Z,121.17
2022-12-16T16:39:58.229Z,123.87
2022-12-16T16:42:43.871Z,107.30
2022-12-16T16:45:30.911Z,121.53
2022-12-16T16:48:23.936Z,112.67
2022-12-16T16:51:09.328Z,99.93
2022-12-16T16:53:54.842Z,112.30
2022-12-16T16:56:40.031Z,113.97
2022-12-16T16:59:25.170Z,148.13
2022-12-16T17:02:12.044Z,142.23
2022-12-16T17:04:57.359Z,131.57
2022-12-16T17:07:42.785Z,160.77
2022-12-16T17:10:28.452Z,145.17
2022-12-16T17:13:13.757Z,125.73
2022-12-16T17:15:59.420Z,133.73
2022-12-16T17:18:51.972Z,127.23
2022-12-16T17:21:37.470Z,137.40
2022-12-16T17:24:22.764Z,129.20
2022-12-16T17:27:07.796Z,137.33
2022-12-16T17:29:53.238Z,130.30
2022-12-16T17:32:38.218Z,155.17
2022-12-16T17:35:25.502Z,150.17
2022-12-16T17:38:10.699Z,131.17
2022-12-16T17:40:55.655Z,141.33
2022-12-16T17:43:40.848Z,129.90
2022-12-16T17:46:30.162Z,143.57
2022-12-16T17:49:22.110Z,140.03
2022-12-16T17:52:08.435Z,128.30
2022-12-16T17:54:53.982Z,138.27
2022-12-16T17:57:38.999Z,129.73
2022-12-16T18:00:25.240Z,157.03
2022-12-16T18:03:10.684Z,129.47
2022-12-16T18:05:55.984Z,122.53
2022-12-16T18:08:42.480Z,154.83
2022-12-16T18:11:27.566Z,119.37
2022-12-16T18:14:12.614Z,147.27
2022-12-16T18:16:57.755Z,120.67
2022-12-16T18:19:43.715Z,136.63
2022-12-16T18:22:43.351Z,140.83
2022-12-16T18:25:29.920Z,127.47
2022-12-16T18:28:15.045Z,122.63
2022-12-16T18:31:08.893Z,155.97
2022-12-16T18:33:54.291Z,145.13
2022-12-16T18:36:39.287Z,144.70
2022-12-16T18:39:24.702Z,122.13
2022-12-16T18:42:11.053Z,124.87
2022-12-16T18:45:00.905Z,96.17
2022-12-16T18:47:46.552Z,114.93
2022-12-16T18:50:37.459Z,130.33
2022-12-16T18:53:23.895Z,104.37
2022-12-16T18:56:18.109Z,118.23
2022-12-16T18:59:04.960Z,116.03
2022-12-16T19:01:50.134Z,125.13
2022-12-16T19:04:35.670Z,129.10
2022-12-16T19:07:21.054Z,138.03
2022-12-16T19:10:06.210Z,143.07
2022-12-16T19:12:51.535Z,135.93
2022-12-16T19:15:41.198Z,115.57
2022-12-16T19:18:27.193Z,139.33
2022-12-16T19:21:12.689Z,126.57
2022-12-16T19:23:58.012Z,119.23
2022-12-16T19:26:56.401Z,98.73
2022-12-16T19:29:42.426Z,125.40
2022-12-16T19:32:29.036Z,121.97
2022-12-16T19:35:14.338Z,116.00
2022-12-16T19:37:59.499Z,100.57
2022-12-16T19:40:44.388Z,108.47
2022-12-16T19:43:30.130Z,131.30
2022-12-16T19:46:15.360Z,114.37
2022-12-16T19:49:01.985Z,123.27
2022-12-16T19:51:47.633Z,118.33
2022-12-16T19:54:32.562Z,104.70
2022-12-16T19:57:23.226Z,112.20
2022-12-16T20:00:08.678Z,116.80
2022-12-16T20:02:56.536Z,104.47
2022-12-16T20:05:43.232Z,114.10
2022-12-16T20:08:28.850Z,88.33
2022-12-16T20:11:14.221Z,115.83
2022-12-16T20:13:59.403Z,129.57
2022-12-16T20:16:44.738Z,138.70
2022-12-16T20:19:29.801Z,132.87
2022-12-16T20:22:16.744Z,110.07
2022-12-16T20:25:02.046Z,110.07
2022-12-16T20:27:47.273Z,123.03
2022-12-16T20:30:32.814Z,122.40
2022-12-16T20:33:17.867Z,138.83
2022-12-16T20:36:13.902Z,119.37
2022-12-16T20:39:00.561Z,144.20
2022-12-16T20:41:45.725Z,140.70
2022-12-16T20:44:36.502Z,111.37
2022-12-16T20:47:22.207Z,120.57
2022-12-16T20:50:07.574Z,112.33
2022-12-16T20:52:52.741Z,92.30
2022-12-16T20:55:39.961Z,125.33
2022-12-16T20:58:25.643Z,113.00
2022-12-16T21:01:11.437Z,131.03
2022-12-16T21:03:56.823Z,113.10
2022-12-16T21:06:42.131Z,122.47
2022-12-16T21:09:27.534Z,124.70
2022-12-16T21:12:14.404Z,104.93
2022-12-16T21:14:59.667Z,105.40
2022-12-16T21:17:44.868Z,106.37
2022-12-16T21:20:30.179Z,106.77
2022-12-16T21:23:19.447Z,102.53
2022-12-16T21:26:04.802Z,89.17
2022-12-16T21:28:51.832Z,92.73
2022-12-16T21:31:37.330Z,93.63
2022-12-16T21:34:23.111Z,102.63
2022-12-16T21:37:09.336Z,103.53
2022-12-16T21:39:54.966Z,90.90
2022-12-16T21:42:44.055Z,105.97
2022-12-16T21:45:31.608Z,95.37
2022-12-16T21:48:16.577Z,85.80
2022-12-16T21:51:02.003Z,91.57
2022-12-16T21:53:47.600Z,109.97
2022-12-16T21:56:33.348Z,88.97
2022-12-16T21:59:33.434Z,104.83
2022-12-16T22:02:19.769Z,108.40
2022-12-16T22:05:16.290Z,124.07
2022-12-16T22:08:01.873Z,117.27
2022-12-16T22:10:47.341Z,102.03
2022-12-16T22:13:32.632Z,109.17
2022-12-16T22:16:18.911Z,106.83
2022-12-16T22:19:05.381Z,116.40
2022-12-16T22:21:50.926Z,124.67
2022-12-16T22:24:36.826Z,107.37
2022-12-16T22:27:22.101Z,112.50
2022-12-16T22:30:07.154Z,112.13
2022-12-16T22:32:48.786Z,107.83
2022-12-16T22:35:35.794Z,104.73
2022-12-16T22:38:21.291Z,122.87
2022-12-16T22:41:13.026Z,103.50
2022-12-16T22:43:58.411Z,107.57
2022-12-16T22:46:44.181Z,92.20
2022-12-16T22:49:29.276Z,107.60
2022-12-16T22:52:18.057Z,116.97
2022-12-16T22:55:05.940Z,125.07
2022-12-16T22:57:53.379Z,95.93
2022-12-16T23:00:39.569Z,126.27
2022-12-16T23:03:24.641Z,110.50
2022-12-16T23:06:09.675Z,106.97
2022-12-16T23:08:56.817Z,124.83
2022-12-16T23:11:45.339Z,109.67
2022-12-16T23:14:34.657Z,112.80
2022-12-16T23:17:23.506Z,80.40
2022-12-16T23:20:08.867Z,112.97
2022-12-16T23:23:03.406Z,104.77
2022-12-16T23:25:50.053Z,100.40
2022-12-16T23:28:35.208Z,94.67
2022-12-16T23:31:20.664Z,93.27
2022-12-16T23:34:05.786Z,103.43
2022-12-16T23:36:51.263Z,91.57
2022-12-16T23:39:38.598Z,106.20
2022-12-16T23:42:36.784Z,98.10
2022-12-16T23:45:22.495Z,100.30
2022-12-16T23:48:07.858Z,101.20
2022-12-16T23:50:53.300Z,93.50
2022-12-16T23:53:41.824Z,88.90
2022-12-16T23:56:27.070Z,92.93
2022-12-16T23:59:13.527Z,87.20
